createdAt,value
2022-08-23T00:02:29.109Z,71.60
2022-08-23T00:07:28.153Z,71.60
2022-08-23T00:12:29.586Z,71.70
2022-08-23T00:17:34.380Z,72.00
2022-08-23T00:22:33.177Z,72.40
2022-08-23T00:27:33.494Z,72.90
2022-08-23T00:32:34.424Z,73.00
2022-08-23T00:37:34.080Z,72.90
2022-08-23T00:42:53.547Z,73.10
2022-08-23T00:47:52.168Z,73.10
2022-08-23T00:52:58.684Z,73.20
2022-08-23T00:57:59.083Z,73.00
2022-08-23T01:02:58.049Z,73.40
2022-08-23T01:08:00.406Z,73.70
2022-08-23T01:13:03.843Z,74.00
2022-08-23T01:18:05.724Z,74.10
2022-08-23T01:23:10.262Z,73.90
2022-08-23T01:28:10.025Z,74.00
2022-08-23T01:33:08.927Z,74.20
2022-08-23T01:38:08.854Z,74.50
2022-08-23T01:43:09.328Z,75.00
2022-08-23T01:48:09.065Z,75.20
2022-08-23T01:53:08.172Z,74.90
2022-08-23T01:58:08.109Z,75.50
2022-08-23T02:03:09.598Z,75.20
2022-08-23T02:08:31.878Z,75.00
2022-08-23T02:13:31.560Z,75.40
2022-08-23T02:18:32.891Z,75.10
2022-08-23T02:23:31.468Z,75.00
2022-08-23T02:28:29.711Z,75.10
2022-08-23T02:33:30.315Z,75.10
2022-08-23T02:38:28.744Z,75.70
2022-08-23T02:43:26.990Z,75.80
2022-08-23T02:48:25.275Z,75.80
2022-08-23T02:53:35.388Z,75.30
2022-08-23T02:58:37.226Z,75.70
2022-08-23T03:03:36.559Z,75.80
2022-08-23T03:08:38.466Z,76.10
2022-08-23T03:13:36.745Z,76.20
2022-08-23T03:18:35.183Z,76.40
2022-08-23T03:23:34.027Z,76.30
2022-08-23T03:28:35.838Z,76.40
2022-08-23T03:33:35.327Z,76.40
2022-08-23T03:38:35.417Z,76.40
2022-08-23T03:43:39.342Z,76.60
2022-08-23T03:48:37.888Z,77.10
2022-08-23T03:53:36.933Z,77.10
2022-08-23T03:58:37.964Z,76.80
2022-08-23T04:03:36.434Z,76.80
2022-08-23T04:08:36.492Z,76.90
2022-08-23T04:13:39.186Z,77.00
2022-08-23T04:18:37.847Z,76.80
2022-08-23T04:23:39.532Z,77.50
2022-08-23T04:28:40.307Z,77.40
2022-08-23T04:33:40.272Z,77.20
2022-08-23T04:38:41.165Z,76.90
2022-08-23T04:43:45.361Z,77.30
2022-08-23T04:48:46.200Z,77.30
2022-08-23T04:53:45.504Z,77.80
2022-08-23T04:59:03.336Z,77.50
2022-08-23T05:04:03.227Z,77.30
2022-08-23T05:09:02.783Z,77.30
2022-08-23T05:14:03.611Z,77.10
2022-08-23T05:19:02.394Z,77.20
2022-08-23T05:24:03.726Z,77.00
2022-08-23T05:29:05.230Z,77.00
2022-08-23T05:34:10.092Z,78.00
2022-08-23T05:39:21.193Z,77.40
2022-08-23T05:44:36.238Z,77.40
2022-08-23T05:49:37.484Z,77.10
2022-08-23T05:54:36.518Z,77.80
2022-08-23T05:59:54.657Z,77.80
2022-08-23T06:04:57.151Z,77.80
2022-08-23T06:09:56.093Z,77.70
2022-08-23T06:14:55.840Z,77.70
2022-08-23T06:19:54.625Z,77.80
2022-08-23T06:24:58.355Z,77.60
2022-08-23T06:30:16.866Z,77.60
2022-08-23T06:35:38.320Z,77.90
2022-08-23T06:40:38.561Z,77.50
2022-08-23T06:46:13.283Z,77.30
2022-08-23T06:51:12.916Z,77.40
2022-08-23T06:56:28.392Z,76.80
2022-08-23T07:01:47.566Z,76.60
2022-08-23T07:06:56.699Z,76.30
2022-08-23T07:11:55.320Z,76.00
2022-08-23T07:16:56.855Z,75.50
2022-08-23T07:21:55.327Z,75.50
2022-08-23T07:26:54.076Z,75.40
2022-08-23T07:31:56.798Z,74.70
2022-08-23T07:36:56.093Z,74.70
2022-08-23T07:41:59.458Z,74.10
2022-08-23T07:47:00.775Z,74.40
2022-08-23T07:52:00.384Z,74.10
2022-08-23T07:56:59.122Z,73.80
2022-08-23T08:02:23.295Z,73.20
2022-08-23T08:07:22.617Z,73.40
2022-08-23T08:12:30.158Z,72.60
2022-08-23T08:17:33.827Z,72.50
2022-08-23T08:22:49.922Z,72.40
2022-08-23T08:28:33.616Z,72.40
2022-08-23T08:33:34.355Z,72.70
2022-08-23T08:38:36.782Z,72.60
2022-08-23T08:43:51.933Z,72.10
2022-08-23T08:48:56.598Z,72.10
2022-08-23T08:53:56.859Z,71.60
2022-08-23T08:59:12.504Z,70.70
2022-08-23T09:04:12.605Z,70.40
2022-08-23T09:09:29.437Z,69.80
2022-08-23T09:14:57.533Z,70.30
2022-08-23T09:20:01.117Z,69.50
2022-08-23T09:25:00.031Z,69.60
2022-08-23T09:30:08.632Z,69.50
2022-08-23T09:35:14.405Z,69.10
2022-08-23T09:40:20.909Z,68.40
2022-08-23T09:45:29.770Z,67.80
2022-08-23T09:50:39.016Z,67.90
2022-08-23T09:55:40.226Z,67.50
2022-08-23T10:00:39.215Z,67.00
2022-08-23T10:05:42.588Z,66.70
2022-08-23T10:10:51.792Z,65.70
2022-08-23T10:16:08.658Z,62.10
2022-08-23T10:21:24.192Z,61.60
2022-08-23T10:26:31.564Z,59.50
2022-08-23T10:31:39.950Z,60.90
2022-08-23T10:36:53.941Z,59.30
2022-08-23T10:41:59.981Z,59.10
2022-08-23T10:47:11.608Z,60.00
2022-08-23T10:52:20.703Z,59.70
2022-08-23T10:57:21.834Z,59.60
2022-08-23T11:02:36.651Z,59.00
2022-08-23T11:08:07.343Z,59.70
2022-08-23T11:13:20.801Z,58.30
2022-08-23T11:18:42.855Z,58.60
2022-08-23T11:23:51.128Z,59.20
2022-08-23T11:28:51.423Z,58.20
2022-08-23T11:34:01.114Z,57.70
2022-08-23T11:39:11.719Z,57.20
2022-08-23T11:44:28.416Z,57.70
2022-08-23T11:49:48.642Z,56.10
2022-08-23T11:55:05.387Z,55.80
2022-08-23T12:00:17.616Z,56.20
2022-08-23T12:05:33.429Z,53.30
2022-08-23T12:11:01.536Z,55.20
2022-08-23T12:16:16.290Z,54.80
2022-08-23T12:21:22.250Z,54.40
2022-08-23T12:26:27.653Z,54.20
2022-08-23T12:31:34.843Z,54.60
2022-08-23T12:36:37.662Z,55.00
2022-08-23T12:41:53.988Z,54.80
2022-08-23T12:46:53.436Z,54.70
2022-08-23T12:51:53.518Z,54.80
2022-08-23T12:56:55.863Z,54.50
2022-08-23T13:01:54.395Z,55.00
2022-08-23T13:06:57.057Z,54.60
2022-08-23T13:11:59.035Z,56.00
2022-08-23T13:16:58.857Z,55.00
2022-08-23T13:22:14.311Z,53.50
2022-08-23T13:27:22.548Z,53.80
2022-08-23T13:32:32.839Z,53.80
2022-08-23T13:37:33.405Z,54.00
2022-08-23T13:42:42.777Z,54.00
2022-08-23T13:47:49.641Z,53.20
2022-08-23T13:53:11.522Z,53.20
2022-08-23T13:58:11.412Z,54.40
2022-08-23T14:03:09.686Z,54.10
2022-08-23T14:08:09.658Z,54.60
2022-08-23T14:13:10.945Z,54.60
2022-08-23T14:18:10.471Z,54.50
2022-08-23T14:23:12.020Z,53.00
2022-08-23T14:28:13.310Z,54.90
2022-08-23T14:33:11.599Z,56.20
2022-08-23T14:38:13.437Z,55.00
2022-08-23T14:43:13.310Z,54.00
2022-08-23T14:48:11.645Z,53.20
2022-08-23T14:53:10.732Z,54.60
2022-08-23T14:58:09.072Z,55.50
2022-08-23T15:03:12.020Z,54.40
2022-08-23T15:08:10.668Z,54.40
2022-08-23T15:13:27.041Z,53.90
2022-08-23T15:18:28.979Z,54.30
2022-08-23T15:23:28.391Z,54.90
2022-08-23T15:28:27.873Z,55.30
2022-08-23T15:33:30.833Z,55.90
2022-08-23T15:38:32.452Z,55.30
2022-08-23T15:43:34.450Z,56.10
2022-08-23T15:48:42.600Z,55.40
2022-08-23T15:53:42.940Z,55.70
2022-08-23T15:58:42.118Z,56.60
2022-08-23T16:03:43.776Z,56.60
2022-08-23T16:08:45.265Z,56.90
2022-08-23T16:13:45.854Z,57.30
2022-08-23T16:18:45.816Z,57.20
2022-08-23T16:23:46.896Z,56.90
2022-08-23T16:28:46.054Z,56.20
2022-08-23T16:33:47.794Z,56.90
2022-08-23T16:38:46.597Z,57.10
2022-08-23T16:43:45.211Z,56.60
2022-08-23T16:48:43.941Z,57.30
2022-08-23T16:53:43.569Z,57.00
2022-08-23T16:58:52.725Z,56.80
2022-08-23T17:03:51.065Z,57.10
2022-08-23T17:08:51.051Z,57.00
2022-08-23T17:13:49.323Z,56.70
2022-08-23T17:18:47.817Z,57.20
2022-08-23T17:23:54.024Z,57.20
2022-08-23T17:28:52.274Z,56.70
2022-08-23T17:33:50.552Z,57.10
2022-08-23T17:38:48.961Z,57.10
2022-08-23T17:43:48.929Z,57.00
2022-08-23T17:48:47.931Z,56.90
2022-08-23T17:53:46.805Z,57.20
2022-08-23T17:58:45.308Z,56.80
2022-08-23T18:03:45.185Z,57.40
2022-08-23T18:08:43.520Z,57.50
2022-08-23T18:13:42.023Z,57.70
2022-08-23T18:18:40.791Z,57.70
2022-08-23T18:23:40.738Z,57.50
2022-08-23T18:28:39.407Z,58.00
2022-08-23T18:33:47.119Z,57.90
2022-08-23T18:38:47.521Z,58.30
2022-08-23T18:43:46.826Z,58.20
2022-08-23T18:48:53.304Z,58.30
2022-08-23T18:53:53.780Z,58.70
2022-08-23T18:58:53.822Z,58.80
2022-08-23T19:03:52.447Z,58.70
2022-08-23T19:08:51.825Z,58.90
2022-08-23T19:13:51.561Z,58.90
2022-08-23T19:18:50.956Z,59.00
2022-08-23T19:23:50.906Z,59.20
2022-08-23T19:28:51.123Z,59.30
2022-08-23T19:33:51.002Z,59.60
2022-08-23T19:38:49.307Z,59.50
2022-08-23T19:43:47.607Z,59.60
2022-08-23T19:48:48.766Z,59.50
2022-08-23T19:54:04.760Z,59.70
2022-08-23T19:59:13.797Z,59.90
2022-08-23T20:04:13.552Z,60.00
2022-08-23T20:09:11.965Z,60.30
2022-08-23T20:14:10.318Z,60.70
2022-08-23T20:19:11.249Z,60.60
2022-08-23T20:24:12.569Z,60.70
2022-08-23T20:29:12.788Z,60.90
2022-08-23T20:34:11.051Z,61.10
2022-08-23T20:39:12.442Z,61.30
2022-08-23T20:44:10.660Z,61.30
2022-08-23T20:49:09.266Z,61.90
2022-08-23T20:54:08.627Z,62.10
2022-08-23T20:59:09.737Z,62.20
2022-08-23T21:04:08.055Z,62.50
2022-08-23T21:09:06.533Z,62.70
2022-08-23T21:14:06.745Z,62.70
2022-08-23T21:19:07.120Z,63.00
2022-08-23T21:24:06.118Z,63.20
2022-08-23T21:29:05.809Z,63.40
2022-08-23T21:34:05.822Z,63.50
2022-08-23T21:39:04.356Z,63.80
2022-08-23T21:44:04.309Z,63.80
2022-08-23T21:49:02.823Z,64.00
2022-08-23T21:54:03.577Z,64.20
2022-08-23T21:59:04.058Z,64.40
2022-08-23T22:04:02.468Z,64.70
2022-08-23T22:09:02.339Z,65.00
2022-08-23T22:14:00.751Z,65.60
2022-08-23T22:19:00.018Z,65.60
2022-08-23T22:23:58.295Z,65.80
2022-08-23T22:28:58.126Z,66.30
2022-08-23T22:33:56.399Z,66.10
2022-08-23T22:38:56.297Z,66.50
2022-08-23T22:43:54.822Z,66.60
2022-08-23T22:48:54.813Z,66.90
2022-08-23T22:53:55.995Z,66.80
2022-08-23T22:58:54.731Z,66.40
2022-08-23T23:03:55.704Z,66.90
2022-08-23T23:08:55.199Z,66.60
2022-08-23T23:13:53.818Z,66.90
2022-08-23T23:19:06.504Z,67.00
2022-08-23T23:24:07.091Z,66.90
2022-08-23T23:29:05.443Z,67.30
2022-08-23T23:34:03.872Z,67.10
2022-08-23T23:39:03.044Z,67.30
2022-08-23T23:44:02.958Z,67.90
2022-08-23T23:49:01.374Z,67.80
2022-08-23T23:54:01.116Z,68.00
2022-08-23T23:59:00.149Z,68.30
